Time;durP1;ratioP1;P1;durP2;ratioP2;P2;SDS_P1;SDS_P2;PMS_P1;PMS_P2;Temp;Humidity;BMP_temperature;BMP_pressure;BME280_temperature;BME280_humidity;BME280_pressure;Samples;Min_cycle;Max_cycle;Signal;HPM_P1;HPM_P2
2022/03/31 00:00:38;;;;;;;21.63;19.00;;;;;;;10.03;95.27;97576.59;4862211;29;20243;-81
2022/03/31 00:03:08;;;;;;;22.20;19.80;;;;;;;9.99;95.79;97569.38;4877689;29;20239;-82
2022/03/31 00:05:36;;;;;;;23.00;20.10;;;;;;;9.95;98.46;97571.78;4867043;29;20236;-82
2022/03/31 00:08:06;;;;;;;21.70;19.33;;;;;;;9.90;100.00;97570.97;4874128;29;20250;-82
2022/03/31 00:10:57;;;;;;;22.30;18.90;;;;;;;9.81;100.00;97564.53;4884285;29;20280;-82
2022/03/31 00:13:27;;;;;;;24.20;19.80;;;;;;;9.76;100.00;97561.84;4869975;29;20232;-82
2022/03/31 00:15:56;;;;;;;22.00;19.27;;;;;;;9.70;100.00;97561.81;4867526;29;20232;-82
2022/03/31 00:18:23;;;;;;;24.03;19.37;;;;;;;9.60;100.00;97558.34;4868394;29;20227;-82
2022/03/31 00:20:50;;;;;;;24.90;19.60;;;;;;;9.57;100.00;97556.16;4879300;29;20326;-82
2022/03/31 00:23:17;;;;;;;22.20;19.47;;;;;;;9.55;100.00;97564.47;4879759;29;20243;-82
2022/03/31 00:25:44;;;;;;;23.00;18.73;;;;;;;9.49;100.00;97562.84;4875052;29;20232;-82
2022/03/31 00:28:11;;;;;;;21.50;19.20;;;;;;;9.48;100.00;97565.75;4868619;29;20736;-82
2022/03/31 00:30:38;;;;;;;21.63;19.30;;;;;;;9.48;100.00;97569.25;4890575;29;21915;-80
2022/03/31 00:33:05;;;;;;;21.10;18.87;;;;;;;9.43;100.00;97563.88;4880234;29;20239;-80
2022/03/31 00:35:32;;;;;;;24.37;20.43;;;;;;;9.43;100.00;97560.41;4880529;29;20235;-80
2022/03/31 00:37:58;;;;;;;21.30;19.10;;;;;;;9.39;100.00;97562.00;4869895;29;20255;-80
2022/03/31 00:40:25;;;;;;;21.50;18.50;;;;;;;9.35;100.00;97553.69;4866212;29;20244;-78
2022/03/31 00:42:55;;;;;;;22.03;18.93;;;;;;;9.36;100.00;97558.00;4863957;29;20243;-80
2022/03/31 00:45:27;;;;;;;22.40;18.83;;;;;;;9.36;100.00;97555.31;4864107;29;20250;-80
2022/03/31 00:47:55;;;;;;;23.00;18.70;;;;;;;9.38;100.00;97555.84;4877775;29;20223;-82
2022/03/31 00:50:23;;;;;;;23.63;19.67;;;;;;;9.42;100.00;97556.13;4882810;29;20242;-81
2022/03/31 00:52:50;;;;;;;23.80;19.80;;;;;;;9.39;100.00;97545.94;4871503;29;20232;-81
2022/03/31 00:55:37;;;;;;;23.10;19.63;;;;;;;9.38;100.00;97547.81;4875599;29;20735;-81
2022/03/31 00:58:05;;;;;;;23.33;20.17;;;;;;;9.40;100.00;97536.88;4882862;29;20235;-81
2022/03/31 01:00:33;;;;;;;23.03;18.43;;;;;;;9.38;100.00;97537.13;4875092;29;20236;-80
2022/03/31 01:03:00;;;;;;;21.43;19.17;;;;;;;9.32;100.00;97538.19;4869807;29;20231;-80
2022/03/31 01:05:27;;;;;;;22.60;19.00;;;;;;;9.34;100.00;97535.25;4878577;29;20231;-80
2022/03/31 01:07:55;;;;;;;24.53;20.50;;;;;;;9.27;100.00;97528.28;4864187;29;20263;-81
2022/03/31 01:10:22;;;;;;;22.90;19.50;;;;;;;9.24;100.00;97528.00;4870740;29;20239;-82
2022/03/31 01:12:49;;;;;;;22.53;19.57;;;;;;;9.18;100.00;97531.72;4870478;29;20246;-81
2022/03/31 01:15:20;;;;;;;23.23;19.63;;;;;;;9.13;100.00;97531.72;4871859;29;20244;-81
2022/03/31 01:17:48;;;;;;;23.13;19.13;;;;;;;9.07;100.00;97524.72;4870084;29;20239;-78
2022/03/31 01:20:21;;;;;;;24.77;19.87;;;;;;;9.03;100.00;97529.78;4860651;29;20247;-79
2022/03/31 01:22:51;;;;;;;25.87;20.40;;;;;;;9.02;100.00;97527.38;4865800;29;20254;-79
2022/03/31 01:25:18;;;;;;;23.17;20.00;;;;;;;9.00;100.00;97529.50;4865645;29;20320;-78
2022/03/31 01:27:46;;;;;;;23.70;20.13;;;;;;;9.03;100.00;97529.78;4871946;29;20245;-80
2022/03/31 01:30:15;;;;;;;23.03;19.90;;;;;;;8.97;100.00;97522.00;4874484;29;20793;-82
2022/03/31 01:32:44;;;;;;;26.03;19.60;;;;;;;8.95;100.00;97521.47;4873086;29;20240;-82
2022/03/31 01:35:11;;;;;;;23.47;19.93;;;;;;;8.91;100.00;97523.88;4863973;29;20330;-82
2022/03/31 01:37:38;;;;;;;22.23;19.77;;;;;;;8.89;100.00;97519.84;4870891;29;20718;-80
2022/03/31 01:40:06;;;;;;;22.50;19.37;;;;;;;8.84;100.00;97523.28;4869672;29;20243;-79
2022/03/31 01:42:32;;;;;;;26.83;19.87;;;;;;;8.75;100.00;97522.97;4861117;29;20246;-78
2022/03/31 01:44:59;;;;;;;24.37;19.33;;;;;;;8.68;100.00;97513.56;4867963;29;20232;-78
2022/03/31 01:47:26;;;;;;;21.77;19.47;;;;;;;8.63;100.00;97516.22;4860027;29;20232;-79
2022/03/31 01:49:54;;;;;;;23.47;19.30;;;;;;;8.57;100.00;97509.25;4876113;29;20244;-79
2022/03/31 01:52:22;;;;;;;23.63;19.90;;;;;;;8.52;100.00;97515.34;4860918;29;20232;-78
2022/03/31 01:54:49;;;;;;;23.80;19.73;;;;;;;8.47;100.00;97519.84;4861207;29;20243;-78
2022/03/31 01:57:16;;;;;;;24.07;19.13;;;;;;;8.41;100.00;97516.34;4867911;29;20327;-78
2022/03/31 01:59:43;;;;;;;23.10;19.47;;;;;;;8.36;100.00;97513.63;4869388;29;20243;-77
2022/03/31 02:02:12;;;;;;;25.03;19.47;;;;;;;8.32;100.00;97518.69;4866244;29;20239;-77
2022/03/31 02:04:40;;;;;;;23.57;19.80;;;;;;;8.23;100.00;97509.53;4870024;29;20324;-79
2022/03/31 02:07:11;;;;;;;22.13;18.87;;;;;;;8.16;100.00;97514.28;4868520;29;20723;-79
2022/03/31 02:09:38;;;;;;;24.20;18.73;;;;;;;8.11;100.00;97510.75;4860690;29;20254;-79
2022/03/31 02:12:06;;;;;;;23.90;19.67;;;;;;;8.06;100.00;97511.53;4860541;29;20228;-78
2022/03/31 02:14:37;;;;;;;22.60;19.37;;;;;;;8.06;100.00;97514.19;4859787;29;20228;-79
2022/03/31 02:17:06;;;;;;;24.03;19.77;;;;;;;7.94;100.00;97511.69;4861028;29;20608;-78
2022/03/31 02:19:33;;;;;;;21.57;18.90;;;;;;;7.88;100.00;97507.38;4859915;29;20216;-80
2022/03/31 02:22:00;;;;;;;25.27;20.30;;;;;;;7.84;100.00;97503.59;4861433;29;20236;-81
2022/03/31 02:24:27;;;;;;;27.63;20.93;;;;;;;7.76;100.00;97501.41;4878019;29;20228;-81
2022/03/31 02:26:54;;;;;;;26.27;20.53;;;;;;;7.69;100.00;97492.81;4870481;29;20292;-81
2022/03/31 02:29:21;;;;;;;22.70;19.67;;;;;;;7.63;100.00;97488.47;4878369;29;20212;-79
2022/03/31 02:31:53;;;;;;;24.53;20.17;;;;;;;7.57;100.00;97489.47;4870019;29;20240;-81
2022/03/31 02:34:20;;;;;;;22.23;18.77;;;;;;;7.57;100.00;97483.34;4862045;29;26178;-81
2022/03/31 02:36:47;;;;;;;26.77;20.73;;;;;;;7.51;100.00;97469.19;4872466;29;20295;-80
2022/03/31 02:39:14;;;;;;;24.07;19.63;;;;;;;7.46;100.00;97471.81;4868025;29;20666;-80
2022/03/31 02:41:40;;;;;;;24.27;19.97;;;;;;;7.45;100.00;97473.66;4870312;29;20246;-80
2022/03/31 02:44:07;;;;;;;28.30;20.73;;;;;;;7.40;100.00;97465.63;4867725;29;20716;-79
2022/03/31 02:46:34;;;;;;;26.47;20.47;;;;;;;7.34;100.00;97461.28;4864860;29;20608;-78
2022/03/31 02:49:01;;;;;;;23.53;19.43;;;;;;;7.29;100.00;97460.44;4862970;29;20666;-77
2022/03/31 02:51:28;;;;;;;23.73;19.33;;;;;;;7.26;100.00;97472.41;4870142;29;20231;-77
2022/03/31 02:56:54;;;;;;;25.40;20.50;;;;;;;7.20;100.00;97468.06;4869225;29;20325;-78
2022/03/31 02:59:21;;;;;;;24.10;19.87;;;;;;;7.22;100.00;97470.47;4870935;29;20249;-77
2022/03/31 03:01:48;;;;;;;25.10;20.67;;;;;;;7.20;100.00;97465.41;4873441;29;20307;-77
2022/03/31 03:04:14;;;;;;;24.07;20.27;;;;;;;7.18;100.00;97453.41;4867292;29;20247;-79
2022/03/31 03:06:42;;;;;;;29.07;20.67;;;;;;;7.16;100.00;97452.84;4870626;29;20232;-77
2022/03/31 03:09:08;;;;;;;25.03;20.33;;;;;;;7.09;100.00;97456.50;4867788;29;20251;-80
2022/03/31 03:11:35;;;;;;;25.70;19.90;;;;;;;7.08;100.00;97468.22;4865902;29;20231;-77
2022/03/31 03:14:03;;;;;;;23.67;20.13;;;;;;;7.09;100.00;97471.69;4869253;29;20726;-77
2022/03/31 03:16:29;;;;;;;26.03;20.17;;;;;;;7.11;100.00;97476.75;4878030;29;20242;-77
2022/03/31 03:18:56;;;;;;;26.33;20.33;;;;;;;7.09;100.00;97474.34;4865994;29;20719;-77
2022/03/31 03:21:23;;;;;;;27.50;20.70;;;;;;;7.05;100.00;97474.03;4874366;29;20232;-79
2022/03/31 03:23:49;;;;;;;25.53;20.80;;;;;;;7.03;100.00;97470.00;4873639;29;20296;-79
2022/03/31 03:26:16;;;;;;;25.97;21.03;;;;;;;6.99;100.00;97468.91;4874491;29;20299;-80
2022/03/31 03:28:43;;;;;;;26.90;21.80;;;;;;;6.98;100.00;97468.09;4872049;29;20664;-81
2022/03/31 03:31:11;;;;;;;26.20;20.70;;;;;;;6.98;100.00;97468.09;4868431;29;20240;-79
2022/03/31 03:33:39;;;;;;;25.73;21.10;;;;;;;6.99;100.00;97464.38;4878270;29;20240;-81
2022/03/31 03:36:10;;;;;;;24.90;21.80;;;;;;;6.98;100.00;97465.44;4863132;29;20324;-80
2022/03/31 03:38:37;;;;;;;25.93;21.67;;;;;;;6.99;100.00;97464.38;4871174;29;20241;-81
2022/03/31 03:41:03;;;;;;;27.60;21.00;;;;;;;7.00;100.00;97467.81;4875516;29;20235;-79
2022/03/31 03:43:31;;;;;;;29.00;21.93;;;;;;;6.98;100.00;97459.31;4881488;29;20602;-79
2022/03/31 03:45:57;;;;;;;29.77;22.27;;;;;;;6.96;100.00;97466.72;4863792;29;20254;-79
2022/03/31 03:48:25;;;;;;;26.77;20.90;;;;;;;6.93;100.00;97462.72;4877815;29;20245;-80
2022/03/31 03:50:53;;;;;;;26.17;21.83;;;;;;;6.88;100.00;97457.31;4867817;29;20220;-79
2022/03/31 03:53:20;;;;;;;26.53;21.30;;;;;;;6.86;100.00;97454.09;4873374;29;20307;-80
2022/03/31 03:55:47;;;;;;;27.63;21.00;;;;;;;6.84;100.00;97447.41;4875077;29;20347;-79
2022/03/31 03:58:14;;;;;;;27.30;21.33;;;;;;;6.81;100.00;97458.56;4865788;29;20256;-79
2022/03/31 04:00:41;;;;;;;28.43;22.10;;;;;;;6.80;100.00;97463.09;4865867;29;20327;-79
2022/03/31 04:03:08;;;;;;;28.07;21.50;;;;;;;6.81;100.00;97463.91;4874169;29;20243;-79
2022/03/31 04:05:35;;;;;;;29.27;21.83;;;;;;;6.80;100.00;97464.94;4881625;29;20227;-79
2022/03/31 04:08:02;;;;;;;27.27;21.90;;;;;;;6.79;100.00;97464.13;4865689;29;20607;-79
2022/03/31 04:10:28;;;;;;;28.83;21.47;;;;;;;6.80;100.00;97468.41;4865825;29;20229;-79
2022/03/31 04:12:55;;;;;;;28.53;21.30;;;;;;;6.74;100.00;97469.38;4896783;29;20237;-79
2022/03/31 04:15:22;;;;;;;26.57;21.27;;;;;;;6.75;100.00;97472.84;4872151;29;20248;-78
2022/03/31 04:17:49;;;;;;;29.67;21.97;;;;;;;6.71;100.00;97469.91;4867532;29;20343;-79
2022/03/31 04:20:16;;;;;;;29.20;21.80;;;;;;;6.74;100.00;97465.91;4870622;29;20281;-79
2022/03/31 04:22:43;;;;;;;30.27;22.90;;;;;;;6.75;100.00;97467.53;4873347;29;20358;-79
2022/03/31 04:25:11;;;;;;;27.83;22.63;;;;;;;6.74;100.00;97465.91;4873345;29;20244;-78
2022/03/31 04:27:39;;;;;;;31.20;23.67;;;;;;;6.70;100.00;97470.94;4872894;29;20282;-79
2022/03/31 04:30:08;;;;;;;30.10;23.87;;;;;;;6.77;100.00;97463.56;4885378;29;20235;-79
2022/03/31 04:32:37;;;;;;;34.90;24.67;;;;;;;6.83;100.00;97475.09;4883075;29;20327;-78
2022/03/31 04:35:05;;;;;;;31.87;24.83;;;;;;;6.86;100.00;97478.03;4877072;29;20287;-80
2022/03/31 04:37:34;;;;;;;35.73;25.93;;;;;;;6.93;100.00;97476.03;4869196;29;20259;-79
2022/03/31 04:40:04;;;;;;;34.57;26.07;;;;;;;7.02;100.00;97476.38;4872962;29;20768;-77
2022/03/31 04:42:31;;;;;;;38.10;28.37;;;;;;;7.01;100.00;97480.91;4881094;29;20755;-80
2022/03/31 04:44:58;;;;;;;36.57;28.40;;;;;;;7.15;100.00;97478.66;4869558;29;20282;-79
2022/03/31 04:47:25;;;;;;;35.20;27.37;;;;;;;7.23;100.00;97472.88;4874448;29;20247;-79
2022/03/31 04:49:52;;;;;;;39.93;28.33;;;;;;;7.43;100.00;97475.75;4872600;29;20463;-80
2022/03/31 04:52:19;;;;;;;36.40;27.23;;;;;;;7.53;100.00;97462.53;4874195;29;20649;-79
2022/03/31 04:54:46;;;;;;;37.43;28.13;;;;;;;7.50;100.00;97463.06;4869653;29;20324;-80
2022/03/31 04:57:13;;;;;;;41.10;29.23;;;;;;;7.63;100.00;97461.84;4868677;29;20240;-77
2022/03/31 04:59:40;;;;;;;38.87;29.20;;;;;;;7.62;100.00;97451.41;4874822;29;20243;-79
2022/03/31 05:02:08;;;;;;;44.63;30.40;;;;;;;7.61;100.00;97458.59;4872777;29;20246;-80
2022/03/31 05:04:35;;;;;;;42.70;29.60;;;;;;;7.48;100.00;97457.16;4873244;29;20239;-79
2022/03/31 05:07:02;;;;;;;43.73;30.90;;;;;;;7.48;100.00;97451.03;4865411;29;20300;-79
2022/03/31 05:09:29;;;;;;;45.33;32.23;;;;;;;7.44;100.00;97441.94;4865615;29;20240;-81
2022/03/31 05:11:56;;;;;;;44.03;31.83;;;;;;;7.61;100.00;97460.47;4865876;29;20248;-78
2022/03/31 05:14:23;;;;;;;43.50;31.70;;;;;;;7.61;100.00;97457.78;4861328;29;20319;-79
2022/03/31 05:16:50;;;;;;;46.40;31.90;;;;;;;7.67;100.00;97462.94;4862784;29;20236;-79
2022/03/31 05:19:17;;;;;;;46.53;31.40;;;;;;;7.50;100.00;97459.59;4862473;29;20236;-78
2022/03/31 05:21:44;;;;;;;43.37;31.47;;;;;;;7.48;100.00;97461.69;4862011;29;20271;-78
2022/03/31 05:24:12;;;;;;;46.33;32.10;;;;;;;7.46;100.00;97464.63;4861434;29;20261;-79
2022/03/31 05:26:39;;;;;;;43.73;31.33;;;;;;;7.53;100.00;97467.88;4860585;29;20322;-78
2022/03/31 05:29:06;;;;;;;47.23;32.60;;;;;;;7.45;100.00;97467.53;4865414;29;20735;-78
2022/03/31 05:31:32;;;;;;;45.23;32.83;;;;;;;7.53;100.00;97461.75;4865429;29;20300;-78
2022/03/31 05:33:59;;;;;;;45.03;32.93;;;;;;;7.65;100.00;97472.25;4869137;29;20656;-78
2022/03/31 05:36:26;;;;;;;45.57;33.00;;;;;;;7.69;100.00;97466.16;4868995;29;20235;-79
2022/03/31 05:38:54;;;;;;;46.30;33.93;;;;;;;7.68;100.00;97466.41;4861322;29;20603;-78
2022/03/31 05:41:21;;;;;;;48.07;33.37;;;;;;;7.64;100.00;97460.78;4861602;29;20238;-79
2022/03/31 05:43:48;;;;;;;47.17;33.80;;;;;;;7.59;100.00;97457.25;4861237;29;20247;-78
2022/03/31 05:46:59;;;;;;;50.60;34.63;;;;;;;7.72;100.00;97456.84;4866080;29;20230;-78
2022/03/31 05:49:25;;;;;;;49.93;35.17;;;;;;;7.65;100.00;97450.94;4866770;29;20310;-78
2022/03/31 05:51:52;;;;;;;49.30;35.20;;;;;;;7.71;100.00;97457.91;4865771;29;20318;-78
2022/03/31 05:54:19;;;;;;;48.83;35.90;;;;;;;7.62;100.00;97465.56;4866258;29;20235;-78
2022/03/31 05:56:46;;;;;;;49.03;35.60;;;;;;;7.83;100.00;97462.03;4870930;29;20235;-79
2022/03/31 05:59:15;;;;;;;51.17;36.53;;;;;;;7.75;100.00;97466.97;4873321;29;20231;-79
2022/03/31 06:01:42;;;;;;;50.30;36.03;;;;;;;7.75;100.00;97474.97;4887250;29;20235;-79
2022/03/31 06:04:09;;;;;;;54.17;37.30;;;;;;;7.78;100.00;97469.16;4871724;29;20262;-79
2022/03/31 06:06:36;;;;;;;50.70;36.57;;;;;;;7.77;100.00;97467.56;4880222;29;20247;-78
2022/03/31 06:09:03;;;;;;;50.70;36.47;;;;;;;7.72;100.00;97468.31;4872996;29;20778;-79
2022/03/31 06:11:30;;;;;;;49.57;35.57;;;;;;;7.89;100.00;97462.84;4872092;29;20240;-79
2022/03/31 06:13:57;;;;;;;50.30;36.57;;;;;;;7.79;100.00;97473.44;4879730;29;20303;-78
2022/03/31 06:16:24;;;;;;;51.83;37.27;;;;;;;7.80;100.00;97467.03;4874502;29;20243;-78
2022/03/31 06:18:51;;;;;;;47.97;36.17;;;;;;;7.85;100.00;97459.06;4878815;29;20688;-78
2022/03/31 06:21:18;;;;;;;50.07;36.67;;;;;;;7.92;100.00;97471.16;4880388;29;20264;-78
2022/03/31 06:23:44;;;;;;;47.83;37.83;;;;;;;7.87;100.00;97460.44;4873325;29;20228;-78
2022/03/31 06:26:11;;;;;;;51.77;39.63;;;;;;;7.94;100.00;97465.56;4876403;29;20239;-78
2022/03/31 06:28:38;;;;;;;53.37;40.13;;;;;;;7.93;100.00;97466.63;4876426;29;20270;-78
2022/03/31 06:31:05;;;;;;;51.83;37.80;;;;;;;8.19;100.00;97463.09;4872184;29;20255;-78
2022/03/31 06:33:32;;;;;;;54.17;37.87;;;;;;;8.24;100.00;97471.13;4872401;29;20707;-77
2022/03/31 06:35:58;;;;;;;52.03;37.50;;;;;;;8.12;100.00;97475.81;4888315;29;20297;-78
2022/03/31 06:38:25;;;;;;;49.23;36.30;;;;;;;8.06;100.00;97466.19;4880407;29;20278;-79
2022/03/31 06:41:08;;;;;;;52.70;38.00;;;;;;;8.09;100.00;97473.69;4873036;29;20330;-78
2022/03/31 06:43:36;;;;;;;52.47;37.97;;;;;;;8.10;100.00;97461.16;4895402;29;20669;-78
2022/03/31 06:46:03;;;;;;;52.07;38.50;;;;;;;8.24;100.00;97462.31;4880542;29;20239;-78
2022/03/31 06:48:31;;;;;;;53.03;38.77;;;;;;;8.24;100.00;97465.78;4873994;29;20233;-78
2022/03/31 06:50:58;;;;;;;51.70;37.73;;;;;;;8.33;100.00;97461.59;4875198;29;20628;-78
2022/03/31 06:53:25;;;;;;;49.93;37.43;;;;;;;8.36;100.00;97455.75;4874372;29;20236;-78
2022/03/31 06:55:52;;;;;;;51.63;37.17;;;;;;;8.37;100.00;97457.34;4883603;29;20661;-78
2022/03/31 06:58:21;;;;;;;53.87;39.50;;;;;;;8.41;100.00;97457.63;4866428;29;20246;-78
2022/03/31 07:00:48;;;;;;;54.33;38.43;;;;;;;8.47;100.00;97451.28;4862230;29;20240;-77
2022/03/31 07:03:15;;;;;;;55.97;38.73;;;;;;;8.57;100.00;97456.69;4873774;29;20250;-77
2022/03/31 07:05:42;;;;;;;49.63;36.87;;;;;;;8.46;100.00;97455.00;4872844;29;20237;-76
2022/03/31 07:08:10;;;;;;;51.33;37.57;;;;;;;8.50;100.00;97458.75;4876028;29;20231;-77
2022/03/31 07:10:36;;;;;;;50.37;37.53;;;;;;;8.54;100.00;97448.38;4888228;29;20247;-77
2022/03/31 07:13:03;;;;;;;51.97;38.10;;;;;;;8.54;100.00;97459.84;4871615;29;20251;-77
2022/03/31 07:15:31;;;;;;;54.27;38.10;;;;;;;8.58;100.00;97455.63;4873125;29;20264;-77
2022/03/31 07:17:59;;;;;;;58.17;39.00;;;;;;;8.49;100.00;97461.69;4870167;29;20632;-77
2022/03/31 07:20:25;;;;;;;58.07;40.23;;;;;;;8.59;100.00;97462.53;4879049;29;20277;-77
2022/03/31 07:22:52;;;;;;;54.80;39.57;;;;;;;8.54;100.00;97461.75;4878755;29;20295;-78
2022/03/31 07:25:19;;;;;;;55.27;38.90;;;;;;;8.54;100.00;97461.75;4866753;29;20227;-77
2022/03/31 07:27:46;;;;;;;54.97;39.23;;;;;;;8.49;100.00;97473.16;4877920;29;20231;-78
2022/03/31 07:30:16;;;;;;;56.83;40.43;;;;;;;8.50;100.00;97472.09;4872164;29;20310;-78
2022/03/31 07:32:57;;;;;;;55.67;40.67;;;;;;;8.40;100.00;97467.50;4872627;29;20251;-78
2022/03/31 07:35:27;;;;;;;57.33;39.87;;;;;;;8.40;100.00;97475.50;4867130;29;20824;-79
2022/03/31 07:37:55;;;;;;;55.03;39.60;;;;;;;8.49;100.00;97478.50;4871298;29;20247;-78
2022/03/31 07:40:24;;;;;;;59.97;40.63;;;;;;;8.45;100.00;97482.75;4879045;29;20247;-77
2022/03/31 07:42:51;;;;;;;61.17;41.30;;;;;;;8.55;100.00;97479.34;4879002;29;20763;-77
2022/03/31 07:45:19;;;;;;;55.93;41.53;;;;;;;8.46;100.00;97473.69;4879447;29;20279;-78
2022/03/31 07:47:46;;;;;;;55.57;40.30;;;;;;;8.41;100.00;97481.66;4873220;29;20613;-77
2022/03/31 07:50:15;;;;;;;58.37;41.97;;;;;;;8.30;100.00;97488.81;4877841;29;20235;-77
2022/03/31 07:52:42;;;;;;;57.50;40.07;;;;;;;8.32;100.00;97485.88;4871336;29;20335;-77
2022/03/31 07:55:12;;;;;;;55.90;39.67;;;;;;;8.21;100.00;97489.50;4874380;29;20263;-78
2022/03/31 07:57:39;;;;;;;59.83;39.43;;;;;;;8.14;100.00;97488.91;4871331;29;20249;-77
2022/03/31 08:00:08;;;;;;;57.57;41.33;;;;;;;8.05;100.00;97487.78;4866864;29;20715;-78
2022/03/31 08:02:42;;;;;;;60.20;40.57;;;;;;;8.16;100.00;97492.13;4862761;29;20707;-78
2022/03/31 08:05:15;;;;;;;58.33;41.57;;;;;;;8.08;100.00;97490.72;4877390;29;20246;-77
2022/03/31 08:07:42;;;;;;;55.20;38.67;;;;;;;8.29;100.00;97489.88;4870535;29;20268;-78
2022/03/31 08:10:09;;;;;;;55.23;40.50;;;;;;;8.11;100.00;97489.44;4862022;29;20231;-78
2022/03/31 08:12:36;;;;;;;62.50;41.83;;;;;;;8.10;100.00;97485.16;4878296;29;20239;-77
2022/03/31 08:15:04;;;;;;;63.40;43.23;;;;;;;8.15;100.00;97490.53;4869405;29;20228;-78
2022/03/31 08:17:31;;;;;;;58.50;42.10;;;;;;;8.16;100.00;97487.63;4877208;29;20360;-77
2022/03/31 08:20:00;;;;;;;59.17;41.33;;;;;;;8.36;100.00;97486.94;4885664;29;20321;-78
2022/03/31 08:22:27;;;;;;;60.90;40.60;;;;;;;8.42;100.00;97487.78;4877645;29;20239;-77
2022/03/31 08:25:00;;;;;;;57.63;40.77;;;;;;;8.50;100.00;97481.97;4860472;29;20676;-77
2022/03/31 08:27:27;;;;;;;60.20;42.30;;;;;;;8.48;100.00;97479.59;4859448;29;20239;-78
2022/03/31 08:29:54;;;;;;;56.17;39.80;;;;;;;8.51;100.00;97484.38;4875731;29;20234;-78
2022/03/31 08:32:21;;;;;;;56.70;40.77;;;;;;;8.60;100.00;97480.16;4868937;29;20594;-78
2022/03/31 08:34:48;;;;;;;53.33;39.73;;;;;;;8.49;100.00;97475.81;4870694;29;20591;-78
2022/03/31 08:37:15;;;;;;;54.13;40.63;;;;;;;8.53;100.00;97478.81;4865834;29;20257;-77
2022/03/31 08:39:41;;;;;;;59.60;40.47;;;;;;;8.66;100.00;97478.34;4873195;29;20231;-77
2022/03/31 08:42:08;;;;;;;58.00;40.77;;;;;;;8.81;100.00;97481.09;4872421;29;20255;-77
2022/03/31 08:44:36;;;;;;;53.03;40.67;;;;;;;8.82;100.00;97483.47;4875121;29;20232;-77
2022/03/31 08:47:03;;;;;;;60.57;40.93;;;;;;;8.72;100.00;97478.13;4879723;29;20297;-77
2022/03/31 08:49:30;;;;;;;60.17;42.90;;;;;;;8.50;100.00;97482.78;4870672;29;20243;-77
2022/03/31 08:52:03;;;;;;;54.70;40.43;;;;;;;8.40;100.00;97474.69;4869971;29;20715;-77
2022/03/31 08:54:30;;;;;;;52.90;39.03;;;;;;;8.27;100.00;97472.47;4874933;29;20318;-77
2022/03/31 08:56:58;;;;;;;56.97;41.70;;;;;;;8.31;100.00;97476.25;4873441;29;20654;-77
2022/03/31 08:59:46;;;;;;;56.53;41.07;;;;;;;8.15;100.00;97485.19;4866479;29;20233;-77
2022/03/31 09:02:23;;;;;;;56.57;41.43;;;;;;;8.26;100.00;97479.66;4861630;29;20242;-78
2022/03/31 09:05:03;;;;;;;58.50;42.47;;;;;;;8.26;100.00;97473.50;4862003;29;20243;-77
2022/03/31 09:07:30;;;;;;;57.43;41.37;;;;;;;8.23;100.00;97477.50;4860831;29;20235;-77
2022/03/31 09:09:57;;;;;;;52.87;40.30;;;;;;;8.17;100.00;97477.72;4862163;29;20692;-77
2022/03/31 09:12:26;;;;;;;53.40;40.10;;;;;;;8.04;100.00;97481.63;4869422;29;20704;-77
2022/03/31 09:15:15;;;;;;;55.73;40.43;;;;;;;8.12;100.00;97481.16;4876949;29;20590;-77
2022/03/31 09:17:41;;;;;;;50.67;39.13;;;;;;;8.19;100.00;97476.41;4868183;29;20244;-77
2022/03/31 09:20:09;;;;;;;51.33;38.47;;;;;;;8.08;100.00;97477.38;4872108;29;20243;-77
2022/03/31 09:22:48;;;;;;;51.63;37.90;;;;;;;8.11;100.00;97474.22;4874554;29;20236;-78
2022/03/31 09:25:25;;;;;;;49.97;39.00;;;;;;;7.97;100.00;97471.19;4860268;29;20239;-77
2022/03/31 09:27:53;;;;;;;52.60;39.23;;;;;;;8.20;100.00;97472.69;4860673;29;20235;-77
2022/03/31 09:30:19;;;;;;;52.33;39.00;;;;;;;8.15;100.00;97482.53;4865327;29;20235;-78
2022/03/31 09:32:50;;;;;;;50.83;37.97;;;;;;;8.08;100.00;97477.38;4873231;29;20295;-77
2022/03/31 09:35:22;;;;;;;47.80;37.73;;;;;;;7.85;100.00;97477.75;4861391;29;20263;-77
2022/03/31 09:37:51;;;;;;;47.97;37.20;;;;;;;7.92;100.00;97478.34;4862336;29;20602;-77
2022/03/31 09:40:19;;;;;;;48.13;38.10;;;;;;;7.96;100.00;97463.44;4861952;29;20275;-77
2022/03/31 09:43:00;;;;;;;44.60;35.60;;;;;;;8.02;100.00;97472.28;4868018;29;20248;-77
2022/03/31 09:45:40;;;;;;;45.70;36.03;;;;;;;8.12;100.00;97462.47;4861153;29;20255;-77
2022/03/31 09:48:21;;;;;;;44.03;33.37;;;;;;;7.89;100.00;97468.97;4861035;29;20239;-77
2022/03/31 09:50:49;;;;;;;41.43;32.47;;;;;;;7.92;100.00;97463.16;4869876;29;20340;-78
2022/03/31 09:53:16;;;;;;;44.87;34.17;;;;;;;8.09;100.00;97452.34;4877576;29;20276;-77
2022/03/31 09:55:46;;;;;;;43.57;33.30;;;;;;;8.17;100.00;97456.38;4862348;29;20259;-77
2022/03/31 09:58:18;;;;;;;47.17;34.57;;;;;;;8.25;100.00;97442.59;4872270;29;20227;-78
2022/03/31 10:00:46;;;;;;;45.50;34.60;;;;;;;8.22;100.00;97451.88;4870020;29;20326;-77
2022/03/31 10:03:14;;;;;;;44.77;33.90;;;;;;;8.19;100.00;97446.28;4883385;29;20231;-78
2022/03/31 10:05:42;;;;;;;44.63;34.23;;;;;;;8.33;100.00;97439.44;4878508;29;20732;-78
2022/03/31 10:08:12;;;;;;;46.73;35.93;;;;;;;8.34;100.00;97436.53;4863904;29;20636;-78
2022/03/31 10:10:39;;;;;;;45.93;34.97;;;;;;;8.39;100.00;97433.91;4880156;29;20239;-78
2022/03/31 10:13:19;;;;;;;45.27;35.53;;;;;;;8.41;100.00;97428.28;4880239;29;20680;-78
2022/03/31 10:15:46;;;;;;;47.50;35.77;;;;;;;8.22;100.00;97427.06;4880507;29;20600;-78
2022/03/31 10:18:15;;;;;;;48.10;36.43;;;;;;;8.35;100.00;97424.00;4871242;29;20715;-78
2022/03/31 10:20:56;;;;;;;47.30;35.53;;;;;;;8.57;100.00;97413.16;4871005;29;20239;-78
2022/03/31 10:26:27;;;;;;;39.40;31.93;;;;;;;8.45;100.00;97413.34;4871450;29;20656;-79
2022/03/31 10:28:55;;;;;;;42.43;31.77;;;;;;;8.63;100.00;97412.91;4878333;29;20582;-77
2022/03/31 10:31:33;;;;;;;39.20;31.73;;;;;;;8.68;100.00;97422.81;4879490;29;20241;-78
2022/03/31 10:34:00;;;;;;;36.60;30.97;;;;;;;8.87;100.00;97409.78;4886852;29;20283;-78
2022/03/31 10:36:36;;;;;;;37.83;30.07;;;;;;;8.75;100.00;97408.16;4871967;29;20245;-77
2022/03/31 10:39:06;;;;;;;47.63;34.77;;;;;;;8.86;100.00;97405.53;4877427;29;20235;-77
2022/03/31 10:41:39;;;;;;;47.77;37.13;;;;;;;8.78;100.00;97402.28;4867804;29;20322;-78
2022/03/31 10:44:11;;;;;;;42.43;34.07;;;;;;;8.87;100.00;97391.91;4877109;29;20266;-76
2022/03/31 10:46:40;;;;;;;42.87;34.23;;;;;;;9.09;100.00;97391.72;4861497;29;20278;-77
2022/03/31 10:49:13;;;;;;;40.97;31.67;;;;;;;9.12;100.00;97378.63;4872608;29;20239;-77
2022/03/31 10:51:43;;;;;;;36.40;30.33;;;;;;;9.06;100.00;97386.88;4868429;29;20228;-77
2022/03/31 10:54:23;;;;;;;40.37;34.50;;;;;;;9.15;100.00;97377.28;4860599;29;20285;-78
2022/03/31 10:57:01;;;;;;;38.67;30.87;;;;;;;8.99;100.00;97379.16;4861762;29;20239;-78
2022/03/31 10:59:28;;;;;;;36.27;31.50;;;;;;;9.01;100.00;97371.66;4860206;29;20232;-77
2022/03/31 11:01:55;;;;;;;35.40;28.43;;;;;;;8.86;100.00;97376.16;4869140;29;20240;-78
2022/03/31 11:04:22;;;;;;;35.07;29.73;;;;;;;8.93;100.00;97369.50;4876014;29;20243;-78
2022/03/31 11:06:55;;;;;;;37.33;29.77;;;;;;;8.73;100.00;97372.09;4861602;29;20320;-78
2022/03/31 11:09:26;;;;;;;38.70;31.93;;;;;;;8.91;100.00;97363.66;4868516;29;20323;-77
2022/03/31 11:11:55;;;;;;;41.30;33.37;;;;;;;8.86;100.00;97368.97;4861558;29;20232;-78
2022/03/31 11:14:23;;;;;;;39.70;31.87;;;;;;;8.62;100.00;97367.81;4863988;29;20243;-78
2022/03/31 11:16:50;;;;;;;40.67;32.43;;;;;;;8.62;100.00;97370.47;4865308;29;20244;-78
2022/03/31 11:19:20;;;;;;;34.47;28.93;;;;;;;8.50;100.00;97362.69;4869243;29;20239;-77
2022/03/31 11:21:47;;;;;;;36.93;29.93;;;;;;;8.40;100.00;97362.63;4867821;29;20332;-78
2022/03/31 11:24:14;;;;;;;37.47;30.77;;;;;;;8.13;100.00;97360.06;4859733;29;20726;-78
2022/03/31 11:26:44;;;;;;;40.77;32.70;;;;;;;8.17;100.00;97363.03;4874511;29;20254;-77
2022/03/31 11:29:12;;;;;;;37.23;29.30;;;;;;;8.10;100.00;97365.94;4870518;29;20240;-78